This is the latest recevied weather packets stored in our database for station/object DL1NUX-15. If no packets are shown the sender has not sent any weather packets the latest 1 day(s).
| Time | Temp. | Humidity | Pressure | Rain* | Wind** | Luminosity | Snow |
|---|---|---|---|---|---|---|---|
| 1778004941 | 12.78° C | 99% | 1007.4 hPa | 13.72 mm | 0 m/s | 0 W/m² | - |
| 1778001943 | 13.33° C | 96% | 1007.5 hPa | 3.3 mm | 1.79 m/s, 280° | 0 W/m² | - |
| 1778001344 | 13.89° C | 93% | 1007 hPa | 1.02 mm | 2.24 m/s, 286° | 0 W/m² | - |
| 1778000145 | 16.67° C | 83% | 1006.6 hPa | 0 mm | 0.45 m/s, 272° | 8 W/m² | - |
| 1777998346 | 17.22° C | 79% | 1006.6 hPa | 0 mm | 0 m/s | 46 W/m² | - |
| 1777995947 | 17.78° C | 75% | 1007 hPa | 0 mm | 0.45 m/s, 276° | 25 W/m² | - |
| 1777994149 | 18.33° C | 67% | 1006.9 hPa | 0 mm | 1.34 m/s, 55° | 32 W/m² | - |
| 1777991123 | 20° C | 57% | 1007.1 hPa | 0 mm | 1.34 m/s, 47° | 42 W/m² | - |
| 1777989352 | 22.78° C | 53% | 1007.3 hPa | 0 mm | 0.89 m/s, 281° | 262 W/m² | - |
| 1777985155 | 24.44° C | 48% | 1007.8 hPa | 0 mm | 0.45 m/s, 269° | 723 W/m² | - |
| 1777983328 | 24.44° C | 47% | 1008 hPa | 0 mm | 0.45 m/s, 299° | 443 W/m² | - |
| 1777982157 | 23.89° C | 47% | 1008.2 hPa | 0 mm | 0 m/s | 457 W/m² | - |
| 1777981557 | 24.44° C | 47% | 1008.4 hPa | 0 mm | 0 m/s | 459 W/m² | - |
| 1777980931 | 22.78° C | 49% | 1008.5 hPa | 0 mm | 0.45 m/s, 286° | 542 W/m² | - |
| 1777980331 | 22.22° C | 52% | 1008.7 hPa | 0 mm | 0.45 m/s, 13° | 599 W/m² | - |
| 1777979730 | 23.89° C | 51% | 1008.8 hPa | 0 mm | 0 m/s | 536 W/m² | - |
| 1777979131 | 23.33° C | 53% | 1008.9 hPa | 0 mm | 0.89 m/s, 278° | 568 W/m² | - |
| 1777978531 | 22.22° C | 56% | 1008.9 hPa | 0 mm | 0 m/s | 561 W/m² | - |
| 1777977332 | 21.11° C | 57% | 1009.3 hPa | 0 mm | 0 m/s | 551 W/m² | - |
| 1777976734 | 22.22° C | 56% | 1009.4 hPa | 0 mm | 0.45 m/s, 354° | 557 W/m² | - |
| 1777975533 | 20.56° C | 66% | 1009.6 hPa | 0 mm | 0.45 m/s, 276° | 600 W/m² | - |
| 1777974934 | 20° C | 67% | 1009.7 hPa | 0 mm | 0.45 m/s, 332° | 607 W/m² | - |
| 1777973734 | 20° C | 70% | 1009.9 hPa | 0 mm | 0 m/s | 723 W/m² | - |
| 1777972519 | 18.33° C | 74% | 1010.3 hPa | 0 mm | 0.45 m/s, 36° | 363 W/m² | - |
| 1777971920 | 17.22° C | 78% | 1010.1 hPa | 0 mm | 0 m/s | 564 W/m² | - |
* Rain latest hour (hover to see other rain measurements)
** Current wind speed in m/s (hover to see current wind gust speed)